Terminal Aerodrome Forecast
Issued by NWS

Home | Current Version | Previous Version | Text Only | Print | Product List | Glossary Off
Versions: 1 2 3 4 5 6 7 8 9 10 11 12 13 14 15

000
FTUS43 KABR 141120
TAFMBG
TAF
KMBG 141120Z 1412/1512 10007KT P6SM BKN120
     FM141500 04007KT 5SM -SHRA BR OVC060
     FM141700 36010KT 4SM -SHRA BR OVC050
     FM141900 34015G23KT P6SM -SHRA OVC050
     FM142100 33018G25KT P6SM BKN060
     FM150000 34012KT P6SM SCT080
     FM150200 33008KT P6SM FEW130
     FM150700 27006KT P6SM SKC=

USA.gov is the U.S. government's official web portal to all federal, state and local government web resources and services.